createdAt,value
2023-03-24T00:01:27.353Z,10.10
2023-03-24T00:03:55.397Z,13.80
2023-03-24T00:06:23.619Z,9.30
2023-03-24T00:08:53.170Z,10.10
2023-03-24T00:11:21.538Z,11.10
2023-03-24T00:13:50.526Z,8.90
2023-03-24T00:16:20.129Z,13.90
2023-03-24T00:18:53.470Z,12.30
2023-03-24T00:21:25.973Z,13.20
2023-03-24T00:23:58.264Z,8.00
2023-03-24T00:26:26.485Z,11.60
2023-03-24T00:28:55.612Z,11.80
2023-03-24T00:31:24.867Z,11.10
2023-03-24T00:33:54.004Z,17.50
2023-03-24T00:36:26.027Z,12.10
2023-03-24T00:38:56.681Z,13.00
2023-03-24T00:41:27.117Z,16.20
2023-03-24T00:43:59.021Z,10.00
2023-03-24T00:46:28.157Z,11.80
2023-03-24T00:49:06.064Z,12.10
2023-03-24T00:51:40.233Z,11.60
2023-03-24T00:54:12.668Z,9.30
2023-03-24T00:56:41.451Z,9.90
2023-03-24T00:59:10.869Z,13.60
2023-03-24T01:01:41.367Z,13.20
2023-03-24T01:04:10.452Z,15.70
2023-03-24T01:06:39.924Z,10.90
2023-03-24T01:09:08.642Z,14.10
2023-03-24T01:11:41.329Z,11.60
2023-03-24T01:14:11.695Z,10.60
2023-03-24T01:16:41.065Z,12.40
2023-03-24T01:19:09.797Z,11.70
2023-03-24T01:21:42.284Z,11.90
2023-03-24T01:24:10.680Z,15.50
2023-03-24T01:26:38.578Z,12.00
2023-03-24T01:29:07.434Z,16.40
2023-03-24T01:31:36.528Z,14.70
2023-03-24T01:34:05.420Z,12.50
2023-03-24T01:36:33.750Z,11.90
2023-03-24T01:39:02.096Z,13.90
2023-03-24T01:41:38.312Z,16.10
2023-03-24T01:44:25.768Z,13.10
2023-03-24T01:46:56.747Z,11.80
2023-03-24T01:49:32.874Z,11.90
2023-03-24T01:52:04.792Z,17.80
2023-03-24T01:54:46.098Z,7.90
2023-03-24T01:57:35.344Z,13.40
2023-03-24T02:00:11.586Z,14.20
2023-03-24T02:02:58.745Z,11.00
2023-03-24T02:05:32.662Z,12.70
2023-03-24T02:08:26.153Z,12.40
2023-03-24T02:10:56.870Z,6.80
2023-03-24T02:13:28.554Z,14.10
2023-03-24T02:16:18.084Z,14.80
2023-03-24T02:19:25.216Z,14.50
2023-03-24T02:22:36.245Z,14.00
2023-03-24T02:25:46.798Z,18.00
2023-03-24T02:28:23.962Z,11.60
2023-03-24T02:31:20.175Z,18.50
2023-03-24T02:34:41.112Z,15.30
2023-03-24T02:37:51.271Z,9.50
2023-03-24T02:40:41.185Z,12.80
2023-03-24T02:43:40.579Z,11.50
2023-03-24T02:46:36.710Z,13.40
2023-03-24T02:49:20.301Z,14.70
2023-03-24T02:51:59.722Z,17.00
2023-03-24T02:55:02.439Z,22.00
2023-03-24T02:57:39.312Z,12.30
2023-03-24T03:00:20.032Z,14.60
2023-03-24T03:03:42.871Z,11.10
2023-03-24T03:06:22.165Z,8.60
2023-03-24T03:08:51.918Z,16.20
2023-03-24T03:11:19.836Z,11.50
2023-03-24T03:13:59.246Z,14.40
2023-03-24T03:16:39.198Z,19.70
2023-03-24T03:19:29.125Z,13.60
2023-03-24T03:21:58.778Z,20.10
2023-03-24T03:24:39.325Z,18.10
2023-03-24T03:27:16.118Z,9.60
2023-03-24T03:29:54.369Z,10.90
2023-03-24T03:32:35.796Z,18.40
2023-03-24T03:35:19.537Z,17.50
2023-03-24T03:38:35.264Z,16.50
2023-03-24T03:41:05.758Z,13.00
2023-03-24T03:43:36.701Z,15.00
2023-03-24T03:46:09.113Z,15.90
2023-03-24T03:48:40.373Z,13.40
2023-03-24T03:51:13.959Z,17.20
2023-03-24T03:53:54.296Z,12.50
2023-03-24T03:56:28.345Z,8.60
2023-03-24T03:59:30.486Z,17.30
2023-03-24T04:02:35.724Z,16.90
2023-03-24T04:05:29.278Z,12.60
2023-03-24T04:08:49.896Z,10.60
2023-03-24T04:11:33.269Z,14.50
2023-03-24T04:14:56.096Z,12.10
2023-03-24T04:17:42.763Z,15.70
2023-03-24T04:20:56.891Z,15.90
2023-03-24T04:23:40.165Z,12.00
2023-03-24T04:26:26.671Z,14.60
2023-03-24T04:28:59.928Z,17.10
2023-03-24T04:32:06.615Z,15.00
2023-03-24T04:34:46.325Z,12.10
2023-03-24T04:37:38.193Z,16.70
2023-03-24T04:40:17.328Z,15.10
2023-03-24T04:42:53.808Z,18.10
2023-03-24T04:45:25.641Z,18.00
2023-03-24T04:48:13.429Z,11.80
2023-03-24T04:51:01.831Z,16.00
2023-03-24T04:53:35.984Z,10.60
2023-03-24T04:56:29.048Z,14.70
2023-03-24T04:59:03.523Z,15.90
2023-03-24T05:01:32.808Z,15.80
2023-03-24T05:04:24.536Z,16.30
2023-03-24T05:06:52.848Z,18.60
2023-03-24T05:09:25.459Z,14.80
2023-03-24T05:11:53.516Z,13.00
2023-03-24T05:14:22.415Z,19.60
2023-03-24T05:16:50.421Z,11.50
2023-03-24T05:19:20.032Z,17.80
2023-03-24T05:21:48.287Z,16.40
2023-03-24T05:24:16.293Z,21.60
2023-03-24T05:26:44.615Z,17.70
2023-03-24T05:29:16.430Z,16.40
2023-03-24T05:31:45.238Z,15.00
2023-03-24T05:34:22.973Z,15.50
2023-03-24T05:36:59.281Z,18.20
2023-03-24T05:39:27.215Z,12.80
2023-03-24T05:42:03.434Z,16.20
2023-03-24T05:44:31.244Z,20.90
2023-03-24T05:47:05.769Z,14.80
2023-03-24T05:49:33.974Z,21.20
2023-03-24T05:52:02.298Z,16.00
2023-03-24T05:54:31.132Z,17.10
2023-03-24T05:57:16.597Z,23.10
2023-03-24T06:00:11.184Z,21.40
2023-03-24T06:02:54.958Z,20.90
2023-03-24T06:05:41.395Z,13.20
2023-03-24T06:08:10.042Z,13.40
2023-03-24T06:10:38.350Z,15.70
2023-03-24T06:13:08.961Z,18.30
2023-03-24T06:15:39.622Z,15.30
2023-03-24T06:18:28.493Z,16.50
2023-03-24T06:20:57.491Z,15.80
2023-03-24T06:23:29.710Z,19.20
2023-03-24T06:26:12.517Z,16.70
2023-03-24T06:28:53.310Z,10.70
2023-03-24T06:31:22.381Z,15.40
2023-03-24T06:33:52.430Z,18.60
2023-03-24T06:36:21.121Z,13.20
2023-03-24T06:38:50.884Z,17.30
2023-03-24T06:43:51.103Z,17.70
2023-03-24T06:46:19.132Z,23.90
2023-03-24T06:48:47.145Z,15.50
2023-03-24T06:51:15.481Z,17.20
2023-03-24T06:53:45.792Z,15.60
2023-03-24T06:56:19.897Z,18.70
2023-03-24T06:58:52.390Z,24.80
2023-03-24T07:01:29.747Z,15.80
2023-03-24T07:04:06.737Z,14.30
2023-03-24T07:06:58.587Z,17.80
2023-03-24T07:09:30.936Z,14.20
2023-03-24T07:11:58.950Z,22.10
2023-03-24T07:14:27.230Z,16.00
2023-03-24T07:16:56.048Z,15.90
2023-03-24T07:19:26.745Z,16.10
2023-03-24T07:22:17.840Z,15.20
2023-03-24T07:25:06.432Z,16.50
2023-03-24T07:27:57.406Z,14.00
2023-03-24T07:30:37.139Z,23.60
2023-03-24T07:33:12.717Z,14.10
2023-03-24T07:35:43.131Z,16.90
2023-03-24T07:38:11.739Z,18.60
2023-03-24T07:40:39.871Z,11.30
2023-03-24T07:43:08.743Z,17.40
2023-03-24T07:45:46.294Z,14.80
2023-03-24T07:48:14.882Z,13.40
2023-03-24T07:50:43.099Z,21.20
2023-03-24T07:53:29.505Z,14.50
2023-03-24T07:55:58.011Z,13.20
2023-03-24T07:58:26.516Z,19.40
2023-03-24T08:01:15.493Z,16.00
2023-03-24T08:03:45.712Z,12.50
2023-03-24T08:06:13.780Z,13.20
2023-03-24T08:08:46.211Z,14.00
2023-03-24T08:11:14.081Z,12.70
2023-03-24T08:13:41.968Z,11.20
2023-03-24T08:16:10.707Z,12.60
2023-03-24T08:18:38.805Z,10.80
2023-03-24T08:21:07.152Z,13.20
2023-03-24T08:23:37.082Z,10.40
2023-03-24T08:26:05.318Z,15.10
2023-03-24T08:28:33.994Z,14.60
2023-03-24T08:31:01.998Z,11.20
2023-03-24T08:33:29.962Z,16.90
2023-03-24T08:35:58.091Z,12.60
2023-03-24T08:38:33.070Z,10.40
2023-03-24T08:41:06.945Z,13.00
2023-03-24T08:43:37.610Z,15.20
2023-03-24T08:46:11.210Z,14.20
2023-03-24T08:48:41.205Z,8.80
2023-03-24T08:51:17.548Z,12.00
2023-03-24T08:53:45.616Z,10.70
2023-03-24T08:56:13.689Z,11.30
2023-03-24T08:58:41.718Z,12.70
2023-03-24T09:01:10.163Z,10.20
2023-03-24T09:03:39.865Z,16.10
2023-03-24T09:06:08.666Z,7.80
2023-03-24T09:08:37.077Z,13.20
2023-03-24T09:11:06.069Z,13.20
2023-03-24T09:13:33.992Z,12.20
2023-03-24T09:16:03.901Z,10.60
2023-03-24T09:18:31.890Z,16.50
2023-03-24T09:20:59.726Z,11.60
2023-03-24T09:23:29.233Z,10.50
2023-03-24T09:25:58.013Z,13.10
2023-03-24T09:28:26.303Z,11.50
2023-03-24T09:31:00.698Z,13.00
2023-03-24T09:33:30.298Z,9.50
2023-03-24T09:36:01.272Z,10.80
2023-03-24T09:38:29.698Z,14.00
2023-03-24T09:41:03.893Z,9.00
2023-03-24T09:43:42.473Z,11.70
2023-03-24T09:46:24.290Z,10.40
2023-03-24T09:48:57.611Z,10.70
2023-03-24T09:51:40.829Z,8.20
2023-03-24T09:54:27.986Z,10.60
2023-03-24T09:56:58.609Z,8.40
2023-03-24T09:59:36.328Z,10.00
2023-03-24T10:02:18.311Z,14.80
2023-03-24T10:04:47.419Z,13.10
2023-03-24T10:07:39.944Z,8.60
2023-03-24T10:10:29.954Z,8.70
2023-03-24T10:13:20.347Z,8.80
2023-03-24T10:16:04.610Z,8.30
2023-03-24T10:18:58.126Z,8.50
2023-03-24T10:21:28.190Z,6.20
2023-03-24T10:24:26.950Z,7.40
2023-03-24T10:27:25.063Z,8.50
2023-03-24T10:30:01.769Z,10.60
2023-03-24T10:32:34.794Z,9.90
2023-03-24T10:35:10.379Z,8.20
2023-03-24T10:37:38.421Z,8.60
2023-03-24T10:40:20.638Z,9.10
2023-03-24T10:43:06.650Z,5.60
2023-03-24T10:45:42.060Z,14.00
2023-03-24T10:48:14.591Z,8.00
2023-03-24T10:50:45.457Z,8.70
2023-03-24T10:53:22.704Z,10.60
2023-03-24T10:55:51.857Z,10.50
2023-03-24T10:58:37.814Z,7.00
2023-03-24T11:01:26.311Z,6.10
2023-03-24T11:04:07.227Z,7.90
2023-03-24T11:06:35.236Z,11.60
2023-03-24T11:09:22.545Z,6.60
2023-03-24T11:11:52.836Z,8.40
2023-03-24T11:14:27.756Z,5.90
2023-03-24T11:17:15.992Z,9.30
2023-03-24T11:19:56.119Z,7.30
2023-03-24T11:22:26.183Z,8.90
2023-03-24T11:24:57.408Z,6.70
2023-03-24T11:27:25.502Z,8.30
2023-03-24T11:29:55.488Z,6.50
2023-03-24T11:32:29.870Z,6.30
2023-03-24T11:35:07.226Z,7.30
2023-03-24T11:37:37.082Z,6.10
2023-03-24T11:40:17.623Z,4.40
2023-03-24T11:43:02.970Z,6.40
2023-03-24T11:45:41.282Z,9.40
2023-03-24T11:48:49.909Z,6.60
2023-03-24T11:51:30.067Z,8.50
2023-03-24T11:54:03.336Z,6.90
2023-03-24T11:56:42.794Z,5.10
2023-03-24T11:59:38.801Z,6.60
2023-03-24T12:02:19.877Z,7.90
2023-03-24T12:05:09.368Z,7.20
2023-03-24T12:07:57.436Z,3.00
2023-03-24T12:11:01.892Z,6.70
2023-03-24T12:13:43.028Z,3.90
2023-03-24T12:16:39.330Z,5.10
2023-03-24T12:19:55.392Z,5.60
2023-03-24T12:22:57.281Z,7.30
2023-03-24T12:25:49.512Z,5.20
2023-03-24T12:28:53.814Z,5.80
2023-03-24T12:31:36.876Z,7.20
2023-03-24T12:34:59.789Z,5.60
2023-03-24T12:37:42.921Z,6.00
2023-03-24T12:40:35.347Z,2.20
2023-03-24T12:43:56.335Z,6.30
2023-03-24T12:47:02.061Z,4.80
2023-03-24T12:49:58.119Z,4.90
2023-03-24T12:52:43.885Z,2.10
2023-03-24T12:55:33.178Z,4.20
2023-03-24T12:58:13.062Z,3.30
2023-03-24T13:01:03.208Z,3.30
2023-03-24T13:03:42.696Z,3.30
2023-03-24T13:06:36.475Z,2.60
2023-03-24T13:09:46.221Z,3.30
2023-03-24T13:12:20.996Z,3.30
2023-03-24T13:15:07.214Z,3.10
2023-03-24T13:17:48.105Z,5.60
2023-03-24T13:20:42.318Z,3.30
2023-03-24T13:23:37.212Z,4.30
2023-03-24T13:26:36.009Z,4.90
2023-03-24T13:29:03.913Z,1.40
2023-03-24T13:31:40.804Z,3.10
2023-03-24T13:34:38.818Z,2.50
2023-03-24T13:37:33.412Z,1.70
2023-03-24T13:40:11.280Z,3.80
2023-03-24T13:42:56.914Z,3.50
2023-03-24T13:45:51.837Z,2.00
2023-03-24T13:48:39.155Z,1.20
2023-03-24T13:51:32.110Z,2.70
2023-03-24T13:54:06.082Z,1.60
2023-03-24T13:56:44.911Z,3.20
2023-03-24T13:59:38.369Z,3.70
2023-03-24T14:02:23.345Z,4.50
2023-03-24T14:05:28.843Z,2.60
2023-03-24T14:08:01.098Z,3.00
2023-03-24T14:10:41.628Z,4.30
2023-03-24T14:13:12.594Z,3.30
2023-03-24T14:15:56.850Z,3.40
2023-03-24T14:18:26.556Z,5.80
2023-03-24T14:20:57.557Z,6.60
2023-03-24T14:23:34.765Z,6.60
2023-03-24T14:26:02.681Z,7.50
2023-03-24T14:28:46.898Z,6.40
2023-03-24T14:31:17.565Z,6.60
2023-03-24T14:33:54.892Z,7.70
2023-03-24T14:36:31.165Z,17.80
2023-03-24T14:39:14.456Z,7.80
2023-03-24T14:41:44.334Z,3.70
2023-03-24T14:44:12.698Z,5.20
2023-03-24T14:46:43.701Z,5.60
2023-03-24T14:49:28.658Z,6.30
2023-03-24T14:52:17.294Z,5.00
2023-03-24T14:55:05.993Z,1.90
2023-03-24T14:58:07.767Z,4.20
2023-03-24T15:03:45.810Z,3.10
2023-03-24T15:06:24.299Z,11.40
2023-03-24T15:08:59.249Z,4.60
2023-03-24T15:11:38.375Z,3.30
2023-03-24T15:14:26.504Z,3.30
2023-03-24T15:17:06.191Z,4.00
2023-03-24T15:19:34.250Z,2.70
2023-03-24T15:22:10.440Z,5.00
2023-03-24T15:24:38.887Z,2.10
2023-03-24T15:27:06.770Z,1.90
2023-03-24T15:29:38.250Z,3.20
2023-03-24T15:32:11.010Z,4.90
2023-03-24T15:34:50.477Z,3.00
2023-03-24T15:37:40.172Z,0.90
2023-03-24T15:40:27.574Z,2.90
2023-03-24T15:42:58.759Z,2.30
2023-03-24T15:45:30.743Z,3.60
2023-03-24T15:48:07.761Z,2.20
2023-03-24T15:50:41.930Z,3.80
2023-03-24T15:53:15.981Z,2.70
2023-03-24T15:55:44.454Z,4.60
2023-03-24T15:58:32.438Z,2.30
2023-03-24T16:01:06.750Z,2.50
2023-03-24T16:03:35.081Z,1.30
2023-03-24T16:06:03.565Z,5.10
2023-03-24T16:08:41.148Z,5.90
2023-03-24T16:11:13.442Z,5.10
2023-03-24T16:13:46.406Z,7.40
2023-03-24T16:16:14.354Z,3.70
2023-03-24T16:18:48.695Z,3.60
2023-03-24T16:21:27.239Z,11.90
2023-03-24T16:23:58.289Z,3.70
2023-03-24T16:26:32.733Z,5.70
2023-03-24T16:29:17.385Z,6.00
2023-03-24T16:31:51.254Z,3.50
2023-03-24T16:34:21.616Z,2.10
2023-03-24T16:36:52.633Z,3.00
2023-03-24T16:39:24.820Z,4.30
2023-03-24T16:41:52.909Z,4.40
2023-03-24T16:44:21.639Z,1.80
2023-03-24T16:46:54.053Z,2.30
2023-03-24T16:49:24.251Z,6.10
2023-03-24T16:51:53.800Z,4.00
2023-03-24T16:54:22.135Z,2.60
2023-03-24T16:56:50.432Z,3.20
2023-03-24T16:59:19.852Z,4.60
2023-03-24T17:01:47.905Z,4.50
2023-03-24T17:04:19.885Z,3.00
2023-03-24T17:06:53.521Z,4.40
2023-03-24T17:09:22.763Z,2.00
2023-03-24T17:11:55.594Z,4.90
2023-03-24T17:14:23.585Z,5.10
2023-03-24T17:16:53.372Z,2.80
2023-03-24T17:19:23.765Z,1.80
2023-03-24T17:22:05.942Z,2.00
2023-03-24T17:24:36.895Z,3.10
2023-03-24T17:27:14.492Z,3.30
2023-03-24T17:29:42.478Z,2.90
2023-03-24T17:32:11.298Z,3.40
2023-03-24T17:34:42.967Z,2.90
2023-03-24T17:37:11.923Z,3.80
2023-03-24T17:39:41.135Z,4.20
2023-03-24T17:42:09.770Z,2.00
2023-03-24T17:44:38.071Z,3.50
2023-03-24T17:47:07.251Z,3.10
2023-03-24T17:49:35.531Z,2.10
2023-03-24T17:52:04.182Z,2.00
2023-03-24T17:54:32.637Z,2.90
2023-03-24T17:57:01.148Z,2.00
2023-03-24T17:59:29.299Z,2.20
2023-03-24T18:01:57.289Z,1.90
2023-03-24T18:04:25.378Z,2.90
2023-03-24T18:06:53.315Z,3.00
2023-03-24T18:09:21.662Z,4.00
2023-03-24T18:11:49.752Z,2.90
2023-03-24T18:14:17.716Z,2.00
2023-03-24T18:16:45.881Z,1.90
2023-03-24T18:19:13.914Z,3.80
2023-03-24T18:21:41.859Z,3.20
2023-03-24T18:24:10.433Z,3.70
2023-03-24T18:26:38.580Z,2.70
2023-03-24T18:29:07.041Z,5.40
2023-03-24T18:31:34.960Z,3.30
2023-03-24T18:34:04.192Z,4.40
2023-03-24T18:36:32.283Z,4.60
2023-03-24T18:39:07.873Z,5.00
2023-03-24T18:41:39.021Z,5.10
2023-03-24T18:44:13.047Z,5.50
2023-03-24T18:46:43.254Z,7.60
2023-03-24T18:49:14.824Z,3.70
2023-03-24T18:54:13.718Z,5.20
2023-03-24T18:56:42.632Z,6.80
2023-03-24T18:59:12.130Z,5.60
2023-03-24T19:01:41.696Z,5.50
2023-03-24T19:04:10.993Z,3.80
2023-03-24T19:06:42.688Z,7.80
2023-03-24T19:09:18.511Z,2.80
2023-03-24T19:11:47.369Z,5.60
2023-03-24T19:14:16.841Z,3.90
2023-03-24T19:16:45.374Z,5.60
2023-03-24T19:19:14.688Z,5.80
2023-03-24T19:21:43.712Z,7.50
2023-03-24T19:24:12.588Z,7.20
2023-03-24T19:26:40.694Z,3.90
2023-03-24T19:29:10.083Z,5.20
2023-03-24T19:31:39.150Z,8.60
2023-03-24T19:34:08.267Z,8.60
2023-03-24T19:36:37.376Z,8.00
2023-03-24T19:39:06.550Z,6.50
2023-03-24T19:41:35.461Z,9.60
2023-03-24T19:44:04.039Z,8.00
2023-03-24T19:46:32.798Z,9.90
2023-03-24T19:49:01.492Z,28.70
2023-03-24T19:51:30.127Z,13.20
2023-03-24T19:53:58.627Z,11.50
2023-03-24T19:56:27.413Z,7.40
2023-03-24T19:58:55.889Z,11.40
2023-03-24T20:01:24.544Z,9.40
2023-03-24T20:03:53.612Z,8.90
2023-03-24T20:06:22.539Z,6.80
2023-03-24T20:08:51.891Z,9.80
2023-03-24T20:11:21.279Z,7.30
2023-03-24T20:13:49.786Z,11.50
2023-03-24T20:16:18.757Z,7.00
2023-03-24T20:18:48.224Z,9.60
2023-03-24T20:21:22.778Z,10.20
2023-03-24T20:23:52.412Z,11.90
2023-03-24T20:26:20.835Z,6.90
2023-03-24T20:28:48.894Z,12.20
2023-03-24T20:31:17.835Z,13.00
2023-03-24T20:33:46.365Z,7.70
2023-03-24T20:36:14.457Z,10.60
2023-03-24T20:38:42.516Z,8.10
2023-03-24T20:41:10.348Z,9.00
2023-03-24T20:43:38.990Z,10.70
2023-03-24T20:46:09.491Z,14.40
2023-03-24T20:48:38.008Z,10.60
2023-03-24T20:51:06.358Z,8.70
2023-03-24T20:53:35.994Z,6.50
2023-03-24T20:56:13.346Z,11.20
2023-03-24T20:58:45.054Z,7.90
2023-03-24T21:03:53.412Z,6.80
2023-03-24T21:06:21.957Z,6.20
2023-03-24T21:08:50.210Z,8.90
2023-03-24T21:11:18.419Z,11.50
2023-03-24T21:13:46.553Z,9.00
2023-03-24T21:16:14.752Z,6.10
2023-03-24T21:18:43.919Z,20.50
2023-03-24T21:21:13.063Z,11.80
2023-03-24T21:23:43.631Z,13.80
2023-03-24T21:26:15.628Z,11.80
2023-03-24T21:28:45.483Z,9.00
2023-03-24T21:31:21.936Z,10.00
2023-03-24T21:33:51.241Z,11.90
2023-03-24T21:36:20.110Z,13.30
2023-03-24T21:38:49.903Z,14.90
2023-03-24T21:41:20.292Z,12.10
2023-03-24T21:43:51.288Z,14.30
2023-03-24T21:46:21.732Z,10.90
2023-03-24T21:48:55.511Z,11.20
2023-03-24T21:51:34.205Z,12.00
2023-03-24T21:54:06.452Z,12.20
2023-03-24T21:56:36.119Z,11.90
2023-03-24T21:59:04.796Z,13.00
2023-03-24T22:01:34.217Z,10.90
2023-03-24T22:04:03.564Z,10.30
2023-03-24T22:06:37.705Z,9.30
2023-03-24T22:09:08.218Z,10.50
2023-03-24T22:11:42.436Z,15.50
2023-03-24T22:14:10.515Z,9.00
2023-03-24T22:16:38.527Z,12.80
2023-03-24T22:19:06.333Z,9.60
2023-03-24T22:21:34.384Z,8.70
2023-03-24T22:24:02.186Z,12.00
2023-03-24T22:26:30.631Z,10.60
2023-03-24T22:28:59.839Z,7.60
2023-03-24T22:31:27.648Z,9.60
2023-03-24T22:33:56.297Z,9.00
2023-03-24T22:36:24.082Z,9.50
2023-03-24T22:38:53.527Z,8.10
2023-03-24T22:41:22.034Z,9.60
2023-03-24T22:43:49.793Z,8.20
2023-03-24T22:46:17.663Z,12.50
2023-03-24T22:48:45.688Z,11.00
2023-03-24T22:51:19.058Z,9.60
2023-03-24T22:53:48.069Z,7.30
2023-03-24T22:56:16.029Z,7.10
2023-03-24T22:58:43.898Z,12.30
2023-03-24T23:01:11.726Z,7.40
2023-03-24T23:03:39.507Z,12.20
2023-03-24T23:06:09.496Z,10.80
2023-03-24T23:08:40.213Z,7.30
2023-03-24T23:11:09.735Z,8.70
2023-03-24T23:13:39.032Z,6.30
2023-03-24T23:16:08.278Z,9.60
2023-03-24T23:18:36.815Z,7.30
2023-03-24T23:21:09.820Z,6.30
2023-03-24T23:23:40.826Z,8.80
2023-03-24T23:26:25.475Z,11.30
2023-03-24T23:28:54.602Z,9.80
2023-03-24T23:31:27.240Z,8.40
2023-03-24T23:33:58.080Z,6.70
2023-03-24T23:36:28.858Z,5.00
2023-03-24T23:38:56.837Z,8.80
2023-03-24T23:41:24.924Z,9.30
2023-03-24T23:43:53.926Z,5.50
2023-03-24T23:46:24.000Z,8.50
2023-03-24T23:48:51.945Z,8.70
2023-03-24T23:51:20.594Z,4.60
2023-03-24T23:53:48.460Z,5.00
2023-03-24T23:56:16.473Z,5.60
2023-03-24T23:58:44.328Z,8.10
